createdAt,value
2023-04-25T00:02:09.823Z,3.83
2023-04-25T00:04:39.089Z,4.07
2023-04-25T00:07:06.341Z,3.90
2023-04-25T00:09:33.264Z,4.00
2023-04-25T00:11:59.997Z,4.43
2023-04-25T00:14:26.688Z,3.97
2023-04-25T00:16:53.317Z,3.53
2023-04-25T00:19:19.977Z,3.83
2023-04-25T00:21:47.222Z,3.57
2023-04-25T00:24:14.124Z,3.60
2023-04-25T00:26:40.778Z,3.93
2023-04-25T00:29:07.430Z,3.70
2023-04-25T00:31:34.091Z,3.40
2023-04-25T00:34:00.874Z,3.30
2023-04-25T00:36:30.926Z,3.20
2023-04-25T00:38:57.616Z,3.30
2023-04-25T00:41:26.363Z,3.53
2023-04-25T00:43:54.604Z,3.60
2023-04-25T00:46:21.476Z,4.47
2023-04-25T00:48:48.203Z,5.20
2023-04-25T00:51:19.939Z,7.00
2023-04-25T00:53:47.419Z,3.33
2023-04-25T00:56:14.439Z,3.17
2023-04-25T00:58:43.365Z,3.40
2023-04-25T01:01:11.159Z,3.47
2023-04-25T01:03:43.865Z,3.23
2023-04-25T01:06:11.962Z,2.87
2023-04-25T01:08:40.076Z,3.13
2023-04-25T01:11:07.438Z,2.50
2023-04-25T01:13:34.842Z,3.40
2023-04-25T01:16:01.806Z,3.07
2023-04-25T01:18:28.528Z,3.80
2023-04-25T01:20:56.438Z,3.00
2023-04-25T01:23:23.549Z,4.10
2023-04-25T01:25:51.209Z,3.07
2023-04-25T01:28:18.032Z,3.10
2023-04-25T01:30:45.268Z,2.87
2023-04-25T01:33:14.766Z,2.90
2023-04-25T01:35:41.630Z,3.17
2023-04-25T01:38:08.632Z,3.23
2023-04-25T01:40:36.830Z,6.10
2023-04-25T01:43:03.636Z,3.40
2023-04-25T01:45:30.462Z,4.33
2023-04-25T01:48:00.272Z,3.90
2023-04-25T01:50:27.177Z,2.97
2023-04-25T01:52:54.853Z,3.30
2023-04-25T01:55:21.521Z,4.27
2023-04-25T01:57:48.265Z,2.80
2023-04-25T02:00:15.118Z,3.00
2023-04-25T02:02:42.010Z,3.47
2023-04-25T02:05:08.898Z,3.03
2023-04-25T02:07:35.625Z,2.40
2023-04-25T02:10:02.437Z,3.47
2023-04-25T02:12:29.675Z,2.90
2023-04-25T02:14:56.366Z,2.73
2023-04-25T02:17:23.112Z,4.77
2023-04-25T02:19:49.840Z,2.57
2023-04-25T02:22:16.608Z,2.83
2023-04-25T02:24:43.299Z,2.80
2023-04-25T02:27:09.959Z,3.00
2023-04-25T02:29:36.696Z,3.23
2023-04-25T02:32:03.458Z,2.80
2023-04-25T02:34:30.088Z,2.90
2023-04-25T02:36:57.126Z,2.43
2023-04-25T02:39:25.961Z,2.17
2023-04-25T02:41:53.247Z,2.60
2023-04-25T02:44:19.826Z,2.53
2023-04-25T02:46:46.488Z,2.40
2023-04-25T02:49:13.168Z,2.50
2023-04-25T02:51:39.787Z,2.43
2023-04-25T02:54:07.448Z,2.83
2023-04-25T02:56:34.126Z,2.50
2023-04-25T02:59:00.732Z,2.60
2023-04-25T03:01:27.570Z,2.97
2023-04-25T03:03:54.842Z,3.30
2023-04-25T03:06:21.900Z,3.80
2023-04-25T03:08:48.568Z,3.27
2023-04-25T03:11:15.219Z,3.97
2023-04-25T03:13:41.893Z,3.60
2023-04-25T03:16:08.603Z,3.83
2023-04-25T03:18:35.324Z,3.60
2023-04-25T03:21:02.099Z,3.87
2023-04-25T03:23:28.804Z,4.00
2023-04-25T03:25:55.511Z,3.80
2023-04-25T03:28:22.797Z,3.67
2023-04-25T03:30:49.434Z,4.90
2023-04-25T03:33:16.087Z,4.00
2023-04-25T03:35:43.614Z,4.10
2023-04-25T03:38:10.348Z,4.20
2023-04-25T03:40:36.951Z,4.30
2023-04-25T03:43:03.541Z,5.87
2023-04-25T03:45:30.310Z,4.97
2023-04-25T03:47:56.977Z,4.53
2023-04-25T03:50:23.759Z,5.47
2023-04-25T03:52:50.812Z,5.93
2023-04-25T03:55:17.490Z,8.10
2023-04-25T03:57:44.242Z,6.03
2023-04-25T04:00:11.459Z,6.20
2023-04-25T04:02:38.647Z,6.47
2023-04-25T04:05:06.968Z,9.77
2023-04-25T04:07:34.292Z,6.13
2023-04-25T04:10:00.995Z,6.53
2023-04-25T04:12:27.589Z,8.07
2023-04-25T04:14:54.237Z,6.70
2023-04-25T04:17:20.901Z,6.23
2023-04-25T04:19:47.496Z,6.50
2023-04-25T04:22:14.513Z,8.53
2023-04-25T04:24:41.116Z,6.80
2023-04-25T04:27:07.739Z,7.37
2023-04-25T04:29:34.367Z,7.20
2023-04-25T04:32:02.057Z,6.53
2023-04-25T04:34:28.707Z,6.27
2023-04-25T04:36:55.908Z,6.97
2023-04-25T04:39:23.186Z,8.70
2023-04-25T04:41:50.088Z,7.13
2023-04-25T04:44:16.710Z,8.40
2023-04-25T04:46:43.544Z,6.73
2023-04-25T04:49:11.023Z,8.20
2023-04-25T04:51:38.232Z,6.40
2023-04-25T04:54:05.394Z,6.87
2023-04-25T04:56:32.649Z,8.20
2023-04-25T04:58:59.603Z,6.93
2023-04-25T05:01:27.302Z,7.07
2023-04-25T05:03:54.718Z,6.87
2023-04-25T05:06:21.984Z,7.10
2023-04-25T05:08:48.700Z,6.53
2023-04-25T05:11:15.338Z,6.50
2023-04-25T05:13:41.936Z,6.27
2023-04-25T05:16:08.595Z,5.97
2023-04-25T05:18:35.251Z,6.70
2023-04-25T05:21:01.951Z,6.43
2023-04-25T05:23:29.140Z,6.10
2023-04-25T05:25:55.800Z,5.90
2023-04-25T05:28:22.656Z,5.93
2023-04-25T05:30:49.991Z,5.90
2023-04-25T05:33:16.922Z,6.53
2023-04-25T05:35:43.741Z,6.13
2023-04-25T05:38:10.370Z,6.63
2023-04-25T05:40:37.432Z,6.20
2023-04-25T05:43:04.186Z,6.07
2023-04-25T05:45:30.930Z,6.67
2023-04-25T05:47:57.672Z,7.57
2023-04-25T05:50:24.408Z,6.00
2023-04-25T05:52:51.410Z,5.63
2023-04-25T05:55:18.155Z,5.67
2023-04-25T05:57:46.162Z,5.80
2023-04-25T06:00:15.984Z,6.80
2023-04-25T06:02:43.357Z,5.50
2023-04-25T06:05:10.756Z,5.87
2023-04-25T06:07:37.662Z,6.10
2023-04-25T06:10:07.263Z,6.00
2023-04-25T06:12:34.374Z,8.20
2023-04-25T06:15:02.159Z,7.17
2023-04-25T06:17:29.295Z,7.83
2023-04-25T06:19:55.946Z,6.93
2023-04-25T06:22:22.544Z,7.70
2023-04-25T06:24:49.258Z,8.70
2023-04-25T06:27:17.148Z,8.60
2023-04-25T06:29:43.864Z,7.93
2023-04-25T06:32:10.533Z,7.13
2023-04-25T06:34:37.187Z,6.97
2023-04-25T06:37:03.999Z,7.63
2023-04-25T06:39:30.915Z,7.10
2023-04-25T06:41:57.552Z,6.90
2023-04-25T06:44:25.017Z,7.80
2023-04-25T06:46:51.834Z,7.63
2023-04-25T06:49:18.555Z,6.80
2023-04-25T06:51:45.304Z,8.73
2023-04-25T06:54:11.939Z,7.67
2023-04-25T06:56:38.763Z,7.53
2023-04-25T06:59:05.450Z,7.80
2023-04-25T07:01:32.059Z,6.97
2023-04-25T07:03:58.888Z,10.80
2023-04-25T07:06:26.825Z,6.23
2023-04-25T07:08:53.633Z,8.00
2023-04-25T07:11:20.804Z,6.70
2023-04-25T07:13:47.492Z,7.10
2023-04-25T07:16:14.123Z,5.47
2023-04-25T07:18:40.813Z,5.77
2023-04-25T07:21:07.509Z,5.97
2023-04-25T07:23:34.136Z,4.57
2023-04-25T07:26:00.775Z,6.57
2023-04-25T07:28:27.453Z,7.37
2023-04-25T07:30:54.053Z,5.77
2023-04-25T07:33:21.556Z,7.93
2023-04-25T07:35:48.504Z,5.20
2023-04-25T07:38:15.372Z,4.90
2023-04-25T07:40:42.000Z,7.00
2023-04-25T07:43:08.642Z,5.53
2023-04-25T07:45:35.358Z,4.20
2023-04-25T07:48:02.150Z,6.23
2023-04-25T07:50:28.913Z,5.27
2023-04-25T07:52:55.510Z,4.07
2023-04-25T07:55:22.104Z,6.03
2023-04-25T07:57:48.761Z,5.97
2023-04-25T08:00:16.113Z,4.23
2023-04-25T08:02:42.949Z,3.20
2023-04-25T08:05:13.027Z,4.20
2023-04-25T08:07:40.042Z,5.03
2023-04-25T08:10:07.829Z,2.87
2023-04-25T08:12:34.935Z,5.20
2023-04-25T08:15:02.080Z,3.10
2023-04-25T08:17:28.791Z,6.53
2023-04-25T08:19:56.352Z,2.60
2023-04-25T08:22:23.150Z,4.60
2023-04-25T08:24:49.850Z,3.40
2023-04-25T08:27:16.507Z,5.00
2023-04-25T08:29:43.499Z,7.10
2023-04-25T08:32:10.253Z,7.27
2023-04-25T08:34:38.848Z,3.40
2023-04-25T08:37:06.639Z,3.40
2023-04-25T08:39:33.238Z,4.97
2023-04-25T08:42:01.852Z,4.93
2023-04-25T08:44:28.601Z,4.67
2023-04-25T08:46:57.625Z,5.37
2023-04-25T08:49:24.991Z,4.33
2023-04-25T08:51:52.845Z,3.93
2023-04-25T08:54:34.279Z,5.40
2023-04-25T08:57:05.077Z,6.73
2023-04-25T08:59:35.505Z,6.23
2023-04-25T09:02:04.035Z,5.50
2023-04-25T09:04:33.759Z,5.67
2023-04-25T09:07:00.419Z,5.87
2023-04-25T09:09:27.018Z,7.17
2023-04-25T09:11:55.410Z,6.20
2023-04-25T09:14:26.756Z,6.73
2023-04-25T09:17:02.120Z,5.23
2023-04-25T09:19:40.187Z,5.53
2023-04-25T09:22:08.318Z,6.03
2023-04-25T09:24:36.354Z,7.13
2023-04-25T09:27:11.858Z,10.40
2023-04-25T09:29:40.529Z,6.13
2023-04-25T09:32:24.636Z,6.20
2023-04-25T09:34:56.734Z,4.97
2023-04-25T09:37:28.509Z,5.83
2023-04-25T09:40:03.565Z,7.30
2023-04-25T09:42:32.384Z,5.90
2023-04-25T09:44:59.948Z,6.67
2023-04-25T09:47:29.736Z,5.63
2023-04-25T09:49:56.984Z,5.63
2023-04-25T09:52:26.247Z,7.03
2023-04-25T09:54:53.885Z,6.27
2023-04-25T09:57:24.648Z,6.47
2023-04-25T09:59:53.859Z,7.73
2023-04-25T10:02:25.202Z,5.47
2023-04-25T10:04:55.988Z,6.13
2023-04-25T10:07:30.277Z,5.73
2023-04-25T10:10:04.139Z,6.13
2023-04-25T10:12:34.589Z,10.27
2023-04-25T10:15:02.649Z,4.77
2023-04-25T10:17:30.181Z,8.60
2023-04-25T10:19:57.824Z,6.57
2023-04-25T10:22:32.481Z,5.83
2023-04-25T10:25:00.167Z,4.30
2023-04-25T10:27:29.278Z,2.93
2023-04-25T10:30:10.124Z,4.47
2023-04-25T10:32:37.128Z,4.57
2023-04-25T10:35:17.537Z,4.87
2023-04-25T10:38:05.790Z,5.93
2023-04-25T10:40:34.249Z,4.03
2023-04-25T10:43:32.111Z,4.33
2023-04-25T10:46:01.833Z,4.30
2023-04-25T10:48:29.716Z,2.70
2023-04-25T10:51:13.251Z,3.47
2023-04-25T10:53:40.417Z,2.10
2023-04-25T10:56:33.899Z,2.63
2023-04-25T10:59:18.252Z,4.30
2023-04-25T11:01:56.255Z,2.40
2023-04-25T11:04:31.399Z,2.30
2023-04-25T11:07:20.465Z,6.20
2023-04-25T11:09:47.627Z,3.57
2023-04-25T11:12:15.284Z,4.90
2023-04-25T11:14:42.444Z,3.50
2023-04-25T11:17:10.174Z,3.93
2023-04-25T11:19:37.232Z,3.70
2023-04-25T11:22:06.223Z,1.77
2023-04-25T11:24:37.849Z,1.70
2023-04-25T11:27:05.407Z,1.80
2023-04-25T11:29:34.366Z,1.50
2023-04-25T11:32:02.506Z,1.90
2023-04-25T11:34:36.672Z,1.80
2023-04-25T11:37:04.424Z,1.47
2023-04-25T11:39:31.700Z,1.70
2023-04-25T11:41:59.332Z,4.07
2023-04-25T11:44:29.669Z,2.13
2023-04-25T11:46:56.747Z,1.97
2023-04-25T11:49:25.880Z,1.60
2023-04-25T11:51:55.948Z,2.73
2023-04-25T11:54:24.821Z,1.63
2023-04-25T11:56:51.462Z,2.20
2023-04-25T11:59:18.126Z,1.40
2023-04-25T12:01:51.452Z,2.80
2023-04-25T12:04:23.119Z,2.60
2023-04-25T12:06:55.961Z,1.90
2023-04-25T12:09:33.243Z,1.70
2023-04-25T12:12:04.451Z,1.60
2023-04-25T12:14:33.816Z,2.03
2023-04-25T12:17:02.209Z,1.60
2023-04-25T12:19:36.952Z,1.43
2023-04-25T12:22:04.505Z,2.03
2023-04-25T12:24:38.361Z,1.90
2023-04-25T12:27:08.987Z,1.97
2023-04-25T12:29:48.851Z,1.20
2023-04-25T12:32:17.612Z,1.47
2023-04-25T12:34:44.577Z,1.50
2023-04-25T12:37:11.594Z,1.47
2023-04-25T12:39:38.589Z,2.07
2023-04-25T12:42:07.586Z,3.73
2023-04-25T12:44:36.201Z,1.60
2023-04-25T12:47:03.999Z,2.13
2023-04-25T12:49:31.132Z,1.77
2023-04-25T12:51:57.949Z,4.23
2023-04-25T12:54:25.630Z,2.60
2023-04-25T12:56:52.384Z,1.73
2023-04-25T12:59:19.551Z,2.60
2023-04-25T13:01:46.478Z,1.93
2023-04-25T13:04:13.420Z,1.97
2023-04-25T13:06:40.163Z,2.30
2023-04-25T13:09:07.758Z,2.07
2023-04-25T13:11:34.416Z,2.47
2023-04-25T13:14:01.997Z,2.53
2023-04-25T13:16:28.985Z,3.83
2023-04-25T13:18:57.205Z,3.70
2023-04-25T13:21:24.164Z,1.90
2023-04-25T13:23:51.321Z,3.37
2023-04-25T13:26:18.262Z,2.23
2023-04-25T13:28:45.157Z,1.90
2023-04-25T13:31:12.032Z,2.17
2023-04-25T13:33:38.708Z,2.07
2023-04-25T13:36:06.392Z,3.20
2023-04-25T13:38:33.136Z,4.90
2023-04-25T13:40:59.914Z,1.83
2023-04-25T13:43:26.611Z,4.00
2023-04-25T13:45:53.404Z,3.57
2023-04-25T13:48:21.175Z,3.80
2023-04-25T13:50:47.998Z,6.17
2023-04-25T13:53:14.693Z,4.03
2023-04-25T13:55:41.456Z,2.47
2023-04-25T13:58:08.921Z,3.23
2023-04-25T14:00:40.692Z,2.30
2023-04-25T14:03:11.167Z,2.30
2023-04-25T14:05:39.120Z,5.23
2023-04-25T14:08:10.421Z,4.90
2023-04-25T14:10:37.689Z,2.57
2023-04-25T14:13:05.550Z,2.63
2023-04-25T14:15:35.956Z,4.13
2023-04-25T14:18:03.284Z,4.77
2023-04-25T14:20:30.717Z,5.40
2023-04-25T14:22:59.006Z,4.40
2023-04-25T14:25:26.314Z,3.37
2023-04-25T14:27:53.619Z,2.53
2023-04-25T14:30:21.980Z,2.93
2023-04-25T14:32:50.590Z,3.27
2023-04-25T14:35:17.774Z,5.97
2023-04-25T14:37:44.923Z,3.93
2023-04-25T14:40:13.828Z,3.87
2023-04-25T14:42:41.147Z,3.10
2023-04-25T14:45:09.628Z,4.43
2023-04-25T14:47:39.283Z,5.57
2023-04-25T14:50:07.451Z,2.93
2023-04-25T14:52:34.118Z,3.03
2023-04-25T14:55:06.229Z,4.00
2023-04-25T14:57:34.244Z,2.80
2023-04-25T15:00:01.675Z,3.73
2023-04-25T15:02:29.275Z,5.27
2023-04-25T15:04:56.909Z,3.30
2023-04-25T15:07:23.942Z,4.37
2023-04-25T15:09:50.648Z,2.93
2023-04-25T15:12:17.394Z,2.80
2023-04-25T15:14:44.030Z,4.17
2023-04-25T15:17:10.709Z,4.90
2023-04-25T15:19:37.493Z,3.13
2023-04-25T15:22:04.467Z,3.37
2023-04-25T15:24:31.144Z,3.93
2023-04-25T15:26:57.781Z,3.23
2023-04-25T15:29:24.487Z,5.80
2023-04-25T15:31:51.268Z,3.20
2023-04-25T15:34:18.001Z,4.00
2023-04-25T15:36:44.885Z,4.37
2023-04-25T15:39:11.764Z,4.93
2023-04-25T15:41:38.597Z,4.47
2023-04-25T15:44:05.385Z,3.13
2023-04-25T15:46:32.315Z,3.10
2023-04-25T15:48:59.092Z,3.20
2023-04-25T15:51:26.803Z,6.03
2023-04-25T15:53:53.722Z,3.20
2023-04-25T15:56:21.387Z,3.70
2023-04-25T15:58:48.409Z,4.17
2023-04-25T16:01:15.150Z,3.67
2023-04-25T16:03:41.990Z,5.20
2023-04-25T16:06:08.734Z,6.17
2023-04-25T16:08:36.126Z,4.13
2023-04-25T16:11:03.373Z,3.90
2023-04-25T16:13:30.236Z,5.73
2023-04-25T16:15:57.624Z,3.67
2023-04-25T16:18:24.424Z,3.40
2023-04-25T16:20:53.096Z,4.50
2023-04-25T16:23:19.724Z,2.83
2023-04-25T16:25:46.402Z,3.53
2023-04-25T16:28:13.111Z,3.63
2023-04-25T16:30:39.795Z,4.10
2023-04-25T16:33:06.518Z,3.63
2023-04-25T16:35:33.294Z,4.00
2023-04-25T16:38:00.650Z,3.63
2023-04-25T16:40:27.759Z,5.40
2023-04-25T16:42:54.422Z,3.10
2023-04-25T16:45:21.450Z,10.07
2023-04-25T16:47:48.221Z,3.73
2023-04-25T16:50:15.772Z,5.50
2023-04-25T16:52:44.420Z,5.67
2023-04-25T16:55:11.352Z,7.40
2023-04-25T16:57:38.219Z,4.50
2023-04-25T17:00:06.438Z,3.53
2023-04-25T17:02:33.385Z,3.10
2023-04-25T17:05:00.191Z,5.57
2023-04-25T17:07:27.790Z,5.63
2023-04-25T17:09:54.416Z,4.40
2023-04-25T17:12:21.623Z,2.90
2023-04-25T17:14:49.488Z,2.40
2023-04-25T17:17:18.756Z,6.60
2023-04-25T17:19:46.388Z,6.20
2023-04-25T17:22:13.335Z,9.03
2023-04-25T17:24:40.594Z,4.97
2023-04-25T17:27:07.547Z,4.70
2023-04-25T17:29:35.120Z,6.07
2023-04-25T17:32:02.078Z,9.93
2023-04-25T17:34:29.030Z,2.57
2023-04-25T17:36:55.739Z,5.23
2023-04-25T17:39:22.991Z,4.73
2023-04-25T17:41:49.711Z,4.33
2023-04-25T17:44:16.385Z,4.40
2023-04-25T17:46:43.107Z,2.80
2023-04-25T17:49:10.318Z,4.73
2023-04-25T17:51:37.893Z,4.63
2023-04-25T17:54:04.563Z,4.17
2023-04-25T17:56:31.851Z,2.33
2023-04-25T17:58:59.604Z,5.03
2023-04-25T18:01:26.437Z,5.33
2023-04-25T18:03:53.388Z,5.90
2023-04-25T18:06:20.271Z,4.30
2023-04-25T18:08:47.393Z,6.40
2023-04-25T18:11:14.264Z,4.90
2023-04-25T18:13:41.424Z,2.93
2023-04-25T18:16:08.643Z,5.90
2023-04-25T18:18:36.601Z,3.87
2023-04-25T18:21:05.808Z,5.63
2023-04-25T18:23:34.229Z,3.20
2023-04-25T18:26:02.317Z,7.60
2023-04-25T18:28:29.288Z,5.60
2023-04-25T18:30:56.649Z,7.90
2023-04-25T18:33:23.496Z,4.77
2023-04-25T18:35:58.693Z,6.80
2023-04-25T18:41:05.692Z,7.43
2023-04-25T18:43:43.439Z,5.73
2023-04-25T18:46:10.369Z,6.70
2023-04-25T18:48:37.354Z,3.87
2023-04-25T18:51:05.373Z,4.33
2023-04-25T18:53:32.302Z,4.53
2023-04-25T18:55:59.053Z,6.27
2023-04-25T18:58:26.282Z,3.80
2023-04-25T19:00:53.402Z,3.17
2023-04-25T19:03:21.892Z,5.37
2023-04-25T19:05:48.661Z,3.90
2023-04-25T19:08:15.313Z,4.43
2023-04-25T19:10:42.059Z,5.00
2023-04-25T19:13:08.945Z,4.67
2023-04-25T19:15:35.896Z,7.33
2023-04-25T19:18:04.428Z,6.00
2023-04-25T19:20:35.169Z,6.03
2023-04-25T19:23:01.942Z,6.00
2023-04-25T19:25:28.586Z,6.50
2023-04-25T19:27:55.316Z,7.23
2023-04-25T19:30:22.054Z,4.87
2023-04-25T19:32:49.089Z,5.10
2023-04-25T19:35:15.755Z,3.97
2023-04-25T19:37:46.416Z,4.23
2023-04-25T19:40:19.544Z,8.63
2023-04-25T19:42:46.390Z,3.93
2023-04-25T19:45:13.114Z,4.27
2023-04-25T19:47:40.756Z,5.10
2023-04-25T19:50:09.340Z,6.17
2023-04-25T19:52:37.119Z,4.80
2023-04-25T19:55:04.976Z,4.03
2023-04-25T19:57:37.459Z,6.60
2023-04-25T20:00:10.502Z,5.97
2023-04-25T20:02:37.393Z,6.00
2023-04-25T20:05:06.078Z,8.17
2023-04-25T20:07:33.152Z,5.80
2023-04-25T20:10:04.023Z,4.13
2023-04-25T20:12:30.686Z,11.83
2023-04-25T20:14:58.517Z,5.47
2023-04-25T20:17:26.776Z,7.30
2023-04-25T20:19:53.482Z,7.13
2023-04-25T20:22:20.373Z,6.43
2023-04-25T20:24:46.958Z,6.20
2023-04-25T20:27:13.650Z,6.40
2023-04-25T20:29:42.022Z,4.37
2023-04-25T20:32:12.190Z,4.43
2023-04-25T20:34:38.963Z,7.87
2023-04-25T20:37:05.670Z,5.00
2023-04-25T20:39:33.257Z,5.33
2023-04-25T20:42:00.023Z,6.73
2023-04-25T20:44:26.871Z,5.20
2023-04-25T20:46:53.557Z,8.00
2023-04-25T20:49:20.225Z,9.40
2023-04-25T20:51:47.587Z,5.47
2023-04-25T20:54:14.278Z,4.47
2023-04-25T20:56:41.316Z,6.73
2023-04-25T20:59:09.042Z,5.80
2023-04-25T21:01:35.863Z,7.30
2023-04-25T21:04:02.836Z,4.70
2023-04-25T21:06:29.662Z,5.30
2023-04-25T21:08:56.366Z,3.27
2023-04-25T21:11:23.556Z,5.47
2023-04-25T21:13:50.624Z,7.27
2023-04-25T21:16:17.307Z,5.37
2023-04-25T21:18:44.040Z,10.13
2023-04-25T21:21:10.859Z,5.83
2023-04-25T21:23:37.558Z,10.03
2023-04-25T21:26:04.197Z,4.77
2023-04-25T21:28:30.829Z,6.13
2023-04-25T21:30:57.510Z,6.93
2023-04-25T21:33:24.136Z,7.07
2023-04-25T21:35:50.784Z,5.77
2023-04-25T21:38:17.505Z,9.20
2023-04-25T21:40:44.247Z,8.03
2023-04-25T21:43:11.023Z,7.47
2023-04-25T21:45:51.436Z,7.73
2023-04-25T21:48:23.927Z,5.57
2023-04-25T21:50:50.605Z,8.47
2023-04-25T21:53:17.214Z,3.40
2023-04-25T21:55:43.847Z,6.20
2023-04-25T21:58:10.483Z,3.80
2023-04-25T22:00:37.753Z,7.10
2023-04-25T22:03:05.043Z,9.37
2023-04-25T22:05:33.988Z,5.27
2023-04-25T22:08:00.879Z,6.27
2023-04-25T22:10:28.050Z,4.60
2023-04-25T22:12:55.798Z,5.73
2023-04-25T22:15:23.943Z,6.83
2023-04-25T22:17:52.304Z,7.27
2023-04-25T22:20:22.598Z,7.50
2023-04-25T22:22:49.618Z,9.73
2023-04-25T22:25:16.536Z,7.07
2023-04-25T22:27:43.743Z,5.93
2023-04-25T22:30:14.827Z,5.43
2023-04-25T22:32:42.060Z,4.80
2023-04-25T22:35:09.263Z,9.13
2023-04-25T22:37:36.082Z,6.80
2023-04-25T22:40:07.142Z,8.40
2023-04-25T22:42:38.473Z,8.77
2023-04-25T22:45:09.241Z,6.77
2023-04-25T22:47:37.147Z,4.90
2023-04-25T22:50:07.543Z,7.60
2023-04-25T22:52:35.069Z,6.70
2023-04-25T22:55:03.077Z,7.17
2023-04-25T22:57:30.145Z,5.83
2023-04-25T22:59:57.483Z,10.67
2023-04-25T23:02:27.488Z,7.93
2023-04-25T23:04:54.771Z,5.00
2023-04-25T23:07:21.591Z,6.90
2023-04-25T23:09:48.334Z,4.87
2023-04-25T23:12:19.013Z,10.80
2023-04-25T23:14:50.616Z,7.23
2023-04-25T23:17:17.312Z,7.23
2023-04-25T23:19:45.183Z,5.87
2023-04-25T23:22:12.417Z,8.07
2023-04-25T23:24:39.106Z,5.80
2023-04-25T23:27:05.924Z,5.50
2023-04-25T23:29:34.054Z,3.47
2023-04-25T23:32:04.293Z,7.93
2023-04-25T23:34:33.954Z,5.83
2023-04-25T23:37:04.395Z,4.20
2023-04-25T23:39:31.586Z,4.93
2023-04-25T23:41:58.195Z,9.73
2023-04-25T23:44:24.861Z,4.87
2023-04-25T23:46:51.480Z,6.10
2023-04-25T23:49:18.131Z,7.33
2023-04-25T23:51:44.762Z,7.10
2023-04-25T23:54:11.445Z,7.37
2023-04-25T23:56:38.139Z,7.87
2023-04-25T23:59:04.910Z,7.53
